sensor_id;sensor_type;location;lat;lon;timestamp;pressure;altitude;pressure_sealevel;temperature;humidity
21824;BME280;11074;48.596;9.238;2023-04-08T00:02:10;98478.06;;;9.92;94.01
21824;BME280;11074;48.596;9.238;2023-04-08T00:04:36;98478.59;;;9.94;93.86
21824;BME280;11074;48.596;9.238;2023-04-08T00:07:01;98481.28;;;9.94;93.75
21824;BME280;11074;48.596;9.238;2023-04-08T00:09:27;98487.09;;;9.91;94.00
21824;BME280;11074;48.596;9.238;2023-04-08T00:11:52;98476.84;;;9.99;93.40
21824;BME280;11074;48.596;9.238;2023-04-08T00:14:18;98477.50;;;10.06;93.19
21824;BME280;11074;48.596;9.238;2023-04-08T00:16:44;98473.53;;;10.09;93.08
21824;BME280;11074;48.596;9.238;2023-04-08T00:19:09;98475.72;;;10.12;92.22
21824;BME280;11074;48.596;9.238;2023-04-08T00:21:35;98477.94;;;10.15;93.21
21824;BME280;11074;48.596;9.238;2023-04-08T00:24:01;98473.66;;;10.14;92.59
21824;BME280;11074;48.596;9.238;2023-04-08T00:26:27;98476.09;;;10.15;92.19
21824;BME280;11074;48.596;9.238;2023-04-08T00:28:52;98477.38;;;10.13;92.98
21824;BME280;11074;48.596;9.238;2023-04-08T00:31:18;98476.56;;;10.12;92.53
21824;BME280;11074;48.596;9.238;2023-04-08T00:33:44;98480.41;;;10.05;93.15
21824;BME280;11074;48.596;9.238;2023-04-08T00:36:10;98467.97;;;10.10;92.73
21824;BME280;11074;48.596;9.238;2023-04-08T00:38:35;98480.25;;;10.11;91.84
21824;BME280;11074;48.596;9.238;2023-04-08T00:41:01;98480.50;;;10.10;92.43
21824;BME280;11074;48.596;9.238;2023-04-08T00:43:27;98472.88;;;10.02;92.48
21824;BME280;11074;48.596;9.238;2023-04-08T00:45:53;98477.41;;;10.01;92.94
21824;BME280;11074;48.596;9.238;2023-04-08T00:48:18;98478.56;;;10.05;92.54
21824;BME280;11074;48.596;9.238;2023-04-08T00:50:44;98480.16;;;10.06;93.27
21824;BME280;11074;48.596;9.238;2023-04-08T00:53:14;98483.09;;;10.05;93.93
21824;BME280;11074;48.596;9.238;2023-04-08T00:55:41;98481.72;;;10.02;92.76
21824;BME280;11074;48.596;9.238;2023-04-08T00:58:07;98492.97;;;10.04;92.69
21824;BME280;11074;48.596;9.238;2023-04-08T01:00:37;98499.25;;;9.98;93.70
21824;BME280;11074;48.596;9.238;2023-04-08T01:03:17;98499.97;;;9.94;93.86
21824;BME280;11074;48.596;9.238;2023-04-08T01:08:29;98492.22;;;9.92;94.26
21824;BME280;11074;48.596;9.238;2023-04-08T01:11:00;98499.50;;;9.97;94.54
21824;BME280;11074;48.596;9.238;2023-04-08T01:13:33;98497.56;;;9.92;93.83
21824;BME280;11074;48.596;9.238;2023-04-08T01:16:01;98497.09;;;9.95;95.23
21824;BME280;11074;48.596;9.238;2023-04-08T01:18:29;98500.06;;;9.99;94.04
21824;BME280;11074;48.596;9.238;2023-04-08T01:20:57;98496.34;;;10.00;93.21
21824;BME280;11074;48.596;9.238;2023-04-08T01:23:53;98503.81;;;9.98;93.38
21824;BME280;11074;48.596;9.238;2023-04-08T01:26:25;98494.63;;;9.94;94.31
21824;BME280;11074;48.596;9.238;2023-04-08T01:28:54;98497.16;;;10.00;94.47
21824;BME280;11074;48.596;9.238;2023-04-08T01:31:23;98498.22;;;9.99;94.77
21824;BME280;11074;48.596;9.238;2023-04-08T01:33:50;98499.25;;;9.98;94.56
21824;BME280;11074;48.596;9.238;2023-04-08T01:36:18;98484.38;;;10.02;94.60
21824;BME280;11074;48.596;9.238;2023-04-08T01:38:46;98495.78;;;9.98;94.32
21824;BME280;11074;48.596;9.238;2023-04-08T01:41:13;98496.66;;;9.87;94.43
21824;BME280;11074;48.596;9.238;2023-04-08T01:43:43;98491.69;;;9.79;94.75
21824;BME280;11074;48.596;9.238;2023-04-08T01:46:11;98495.84;;;9.86;94.63
21824;BME280;11074;48.596;9.238;2023-04-08T01:48:39;98486.88;;;9.92;94.58
21824;BME280;11074;48.596;9.238;2023-04-08T01:51:05;98485.59;;;9.95;95.12
21824;BME280;11074;48.596;9.238;2023-04-08T01:53:32;98483.94;;;9.94;94.71
21824;BME280;11074;48.596;9.238;2023-04-08T01:56:06;98487.81;;;9.86;95.00
21824;BME280;11074;48.596;9.238;2023-04-08T01:58:47;98488.38;;;9.88;95.14
21824;BME280;11074;48.596;9.238;2023-04-08T02:01:20;98487.91;;;9.91;95.50
21824;BME280;11074;48.596;9.238;2023-04-08T02:03:48;98487.09;;;9.91;95.50
21824;BME280;11074;48.596;9.238;2023-04-08T02:06:16;98491.22;;;9.82;95.43
21824;BME280;11074;48.596;9.238;2023-04-08T02:08:42;98485.63;;;9.83;95.02
21824;BME280;11074;48.596;9.238;2023-04-08T02:11:08;98494.28;;;9.90;95.41
21824;BME280;11074;48.596;9.238;2023-04-08T02:13:34;98489.22;;;9.89;95.95
21824;BME280;11074;48.596;9.238;2023-04-08T02:16:17;98494.28;;;9.90;95.87
21824;BME280;11074;48.596;9.238;2023-04-08T02:18:58;98497.13;;;9.84;95.77
21824;BME280;11074;48.596;9.238;2023-04-08T02:21:42;98493.38;;;9.85;95.47
21824;BME280;11074;48.596;9.238;2023-04-08T02:24:11;98498.25;;;9.88;95.03
21824;BME280;11074;48.596;9.238;2023-04-08T02:26:41;98487.81;;;9.86;94.79
21824;BME280;11074;48.596;9.238;2023-04-08T02:29:13;98497.59;;;9.81;95.02
21824;BME280;11074;48.596;9.238;2023-04-08T02:31:42;98499.53;;;9.85;95.32
21824;BME280;11074;48.596;9.238;2023-04-08T02:34:10;98498.25;;;9.88;95.37
21824;BME280;11074;48.596;9.238;2023-04-08T02:36:36;98494.19;;;9.85;95.93
21824;BME280;11074;48.596;9.238;2023-04-08T02:39:03;98499.31;;;9.87;95.49
21824;BME280;11074;48.596;9.238;2023-04-08T02:41:30;98497.47;;;9.87;94.90
21824;BME280;11074;48.596;9.238;2023-04-08T02:43:56;98497.69;;;9.86;95.24
21824;BME280;11074;48.596;9.238;2023-04-08T02:46:22;98500.53;;;9.79;94.36
21824;BME280;11074;48.596;9.238;2023-04-08T02:48:48;98499.81;;;9.72;94.88
21824;BME280;11074;48.596;9.238;2023-04-08T02:51:14;98502.84;;;9.75;94.96
21824;BME280;11074;48.596;9.238;2023-04-08T02:53:39;98501.13;;;9.69;94.63
21824;BME280;11074;48.596;9.238;2023-04-08T02:56:08;98499.63;;;9.73;94.94
21824;BME280;11074;48.596;9.238;2023-04-08T02:58:34;98496.22;;;9.78;95.25
21824;BME280;11074;48.596;9.238;2023-04-08T03:00:59;98497.34;;;9.82;94.38
21824;BME280;11074;48.596;9.238;2023-04-08T03:03:25;98497.03;;;9.79;93.73
21824;BME280;11074;48.596;9.238;2023-04-08T03:05:56;98500.66;;;9.72;93.89
21824;BME280;11074;48.596;9.238;2023-04-08T03:08:22;98506.16;;;9.66;93.79
21824;BME280;11074;48.596;9.238;2023-04-08T03:10:49;98499.91;;;9.60;95.32
21824;BME280;11074;48.596;9.238;2023-04-08T03:13:15;98511.59;;;9.59;95.12
21824;BME280;11074;48.596;9.238;2023-04-08T03:15:41;98505.69;;;9.57;95.60
21824;BME280;11074;48.596;9.238;2023-04-08T03:18:07;98507.94;;;9.49;95.32
21824;BME280;11074;48.596;9.238;2023-04-08T03:20:33;98503.41;;;9.49;95.41
21824;BME280;11074;48.596;9.238;2023-04-08T03:22:59;98508.38;;;9.57;95.63
21824;BME280;11074;48.596;9.238;2023-04-08T03:25:25;98509.88;;;9.53;95.50
21824;BME280;11074;48.596;9.238;2023-04-08T03:27:51;98507.41;;;9.63;95.02
21824;BME280;11074;48.596;9.238;2023-04-08T03:30:16;98506.38;;;9.64;94.70
21824;BME280;11074;48.596;9.238;2023-04-08T03:32:42;98504.88;;;9.57;93.77
21824;BME280;11074;48.596;9.238;2023-04-08T03:35:08;98505.69;;;9.57;94.42
21824;BME280;11074;48.596;9.238;2023-04-08T03:37:34;98502.94;;;9.52;94.27
21824;BME280;11074;48.596;9.238;2023-04-08T03:39:59;98516.50;;;9.51;94.62
21824;BME280;11074;48.596;9.238;2023-04-08T03:42:25;98505.69;;;9.57;94.71
21824;BME280;11074;48.596;9.238;2023-04-08T03:44:51;98509.97;;;9.58;94.51
21824;BME280;11074;48.596;9.238;2023-04-08T03:47:17;98510.88;;;9.64;93.98
21824;BME280;11074;48.596;9.238;2023-04-08T03:49:42;98516.22;;;9.64;93.29
21824;BME280;11074;48.596;9.238;2023-04-08T03:52:08;98512.75;;;9.63;93.53
21824;BME280;11074;48.596;9.238;2023-04-08T03:54:34;98513.56;;;9.64;93.83
21824;BME280;11074;48.596;9.238;2023-04-08T03:56:59;98510.69;;;9.54;93.36
21824;BME280;11074;48.596;9.238;2023-04-08T03:59:25;98506.75;;;9.45;94.22
21824;BME280;11074;48.596;9.238;2023-04-08T04:01:51;98512.81;;;9.40;94.51
21824;BME280;11074;48.596;9.238;2023-04-08T04:04:18;98508.97;;;9.48;94.50
21824;BME280;11074;48.596;9.238;2023-04-08T04:06:44;98502.34;;;9.50;93.49
21824;BME280;11074;48.596;9.238;2023-04-08T04:09:09;98503.97;;;9.51;93.47
21824;BME280;11074;48.596;9.238;2023-04-08T04:11:36;98505.81;;;9.51;93.11
21824;BME280;11074;48.596;9.238;2023-04-08T04:14:02;98507.69;;;9.50;92.90
21824;BME280;11074;48.596;9.238;2023-04-08T04:16:28;98512.34;;;9.43;94.48
21824;BME280;11074;48.596;9.238;2023-04-08T04:18:53;98512.00;;;9.40;94.24
21824;BME280;11074;48.596;9.238;2023-04-08T04:21:19;98517.69;;;9.43;93.86
21824;BME280;11074;48.596;9.238;2023-04-08T04:23:45;98509.22;;;9.46;93.77
21824;BME280;11074;48.596;9.238;2023-04-08T04:26:11;98510.25;;;9.45;93.48
21824;BME280;11074;48.596;9.238;2023-04-08T04:28:37;98505.72;;;9.46;93.99
21824;BME280;11074;48.596;9.238;2023-04-08T04:31:04;98514.75;;;9.45;92.94
21824;BME280;11074;48.596;9.238;2023-04-08T04:33:30;98513.88;;;9.39;93.40
21824;BME280;11074;48.596;9.238;2023-04-08T04:35:56;98516.41;;;9.46;93.73
21824;BME280;11074;48.596;9.238;2023-04-08T04:38:21;98516.19;;;9.47;93.25
21824;BME280;11074;48.596;9.238;2023-04-08T04:40:47;98512.91;;;9.45;93.73
21824;BME280;11074;48.596;9.238;2023-04-08T04:43:13;98517.13;;;9.41;93.97
21824;BME280;11074;48.596;9.238;2023-04-08T04:45:39;98520.63;;;9.30;94.94
21824;BME280;11074;48.596;9.238;2023-04-08T04:48:05;98518.06;;;9.24;94.52
21824;BME280;11074;48.596;9.238;2023-04-08T04:50:31;98520.25;;;9.27;94.71
21824;BME280;11074;48.596;9.238;2023-04-08T04:52:56;98532.56;;;9.28;94.43
21824;BME280;11074;48.596;9.238;2023-04-08T04:55:22;98530.34;;;9.25;94.84
21824;BME280;11074;48.596;9.238;2023-04-08T04:57:48;98526.88;;;9.24;94.95
21824;BME280;11074;48.596;9.238;2023-04-08T05:00:14;98534.41;;;9.27;94.42
21824;BME280;11074;48.596;9.238;2023-04-08T05:02:46;98543.44;;;9.26;94.08
21824;BME280;11074;48.596;9.238;2023-04-08T05:05:12;98541.97;;;9.19;94.99
21824;BME280;11074;48.596;9.238;2023-04-08T05:07:38;98541.75;;;9.20;95.04
21824;BME280;11074;48.596;9.238;2023-04-08T05:10:04;98544.88;;;9.17;95.63
21824;BME280;11074;48.596;9.238;2023-04-08T05:12:31;98545.09;;;9.15;95.68
21824;BME280;11074;48.596;9.238;2023-04-08T05:14:57;98545.78;;;9.23;95.07
21824;BME280;11074;48.596;9.238;2023-04-08T05:17:26;98546.94;;;9.27;94.83
21824;BME280;11074;48.596;9.238;2023-04-08T05:19:52;98546.94;;;9.27;95.04
21824;BME280;11074;48.596;9.238;2023-04-08T05:22:21;98547.63;;;9.34;94.58
21824;BME280;11074;48.596;9.238;2023-04-08T05:24:46;98549.38;;;9.28;94.16
21824;BME280;11074;48.596;9.238;2023-04-08T05:27:12;98547.28;;;9.30;94.24
21824;BME280;11074;48.596;9.238;2023-04-08T05:29:38;98557.59;;;9.38;93.56
21824;BME280;11074;48.596;9.238;2023-04-08T05:32:03;98552.88;;;9.29;94.49
21824;BME280;11074;48.596;9.238;2023-04-08T05:34:33;98555.75;;;9.27;94.66
21824;BME280;11074;48.596;9.238;2023-04-08T05:36:59;98549.59;;;9.27;94.83
21824;BME280;11074;48.596;9.238;2023-04-08T05:39:28;98550.31;;;9.22;95.39
21824;BME280;11074;48.596;9.238;2023-04-08T05:41:56;98550.31;;;9.22;94.67
21824;BME280;11074;48.596;9.238;2023-04-08T05:44:22;98558.31;;;9.22;95.47
21824;BME280;11074;48.596;9.238;2023-04-08T05:46:47;98559.94;;;9.23;94.69
21824;BME280;11074;48.596;9.238;2023-04-08T05:49:13;98554.38;;;9.25;95.03
21824;BME280;11074;48.596;9.238;2023-04-08T05:51:40;98564.22;;;9.24;95.09
21824;BME280;11074;48.596;9.238;2023-04-08T05:54:06;98563.75;;;9.27;94.87
21824;BME280;11074;48.596;9.238;2023-04-08T05:56:31;98569.44;;;9.31;94.76
21824;BME280;11074;48.596;9.238;2023-04-08T05:58:57;98564.31;;;9.29;95.04
21824;BME280;11074;48.596;9.238;2023-04-08T06:01:23;98573.63;;;9.27;95.30
21824;BME280;11074;48.596;9.238;2023-04-08T06:03:50;98575.72;;;9.25;95.21
21824;BME280;11074;48.596;9.238;2023-04-08T06:06:17;98572.00;;;9.26;95.31
21824;BME280;11074;48.596;9.238;2023-04-08T06:08:43;98582.78;;;9.31;95.24
21824;BME280;11074;48.596;9.238;2023-04-08T06:11:08;98586.59;;;9.35;95.25
21824;BME280;11074;48.596;9.238;2023-04-08T06:13:34;98582.06;;;9.35;95.30
21824;BME280;11074;48.596;9.238;2023-04-08T06:16:16;98584.84;;;9.40;94.86
21824;BME280;11074;48.596;9.238;2023-04-08T06:18:42;98594.50;;;9.41;95.46
21824;BME280;11074;48.596;9.238;2023-04-08T06:21:09;98592.50;;;9.48;95.31
21824;BME280;11074;48.596;9.238;2023-04-08T06:23:35;98595.53;;;9.52;93.86
21824;BME280;11074;48.596;9.238;2023-04-08T06:26:00;98597.00;;;9.59;94.03
21824;BME280;11074;48.596;9.238;2023-04-08T06:28:28;98602.69;;;9.63;93.15
21824;BME280;11074;48.596;9.238;2023-04-08T06:30:55;98596.91;;;9.66;92.65
21824;BME280;11074;48.596;9.238;2023-04-08T06:33:21;98603.94;;;9.72;92.73
21824;BME280;11074;48.596;9.238;2023-04-08T06:35:47;98605.56;;;9.73;92.29
21824;BME280;11074;48.596;9.238;2023-04-08T06:38:12;98605.34;;;9.74;93.18
21824;BME280;11074;48.596;9.238;2023-04-08T06:40:39;98596.50;;;9.74;92.22
21824;BME280;11074;48.596;9.238;2023-04-08T06:43:05;98607.53;;;9.77;91.84
21824;BME280;11074;48.596;9.238;2023-04-08T06:45:33;98608.34;;;9.78;90.97
21824;BME280;11074;48.596;9.238;2023-04-08T06:47:59;98613.44;;;9.80;90.19
21824;BME280;11074;48.596;9.238;2023-04-08T06:50:24;98609.84;;;9.86;90.68
21824;BME280;11074;48.596;9.238;2023-04-08T06:52:50;98607.50;;;9.89;89.49
21824;BME280;11074;48.596;9.238;2023-04-08T06:55:16;98613.44;;;9.91;89.92
21824;BME280;11074;48.596;9.238;2023-04-08T06:57:42;98612.38;;;9.92;89.03
21824;BME280;11074;48.596;9.238;2023-04-08T07:00:08;98605.66;;;9.90;87.85
21824;BME280;11074;48.596;9.238;2023-04-08T07:02:34;98606.78;;;9.94;87.85
21824;BME280;11074;48.596;9.238;2023-04-08T07:05:00;98602.03;;;9.96;87.79
21824;BME280;11074;48.596;9.238;2023-04-08T07:07:26;98613.06;;;9.99;87.07
21824;BME280;11074;48.596;9.238;2023-04-08T07:09:51;98608.53;;;10.00;86.95
21824;BME280;11074;48.596;9.238;2023-04-08T07:12:17;98615.72;;;9.99;87.65
21824;BME280;11074;48.596;9.238;2023-04-08T07:14:43;98615.00;;;10.04;87.16
21824;BME280;11074;48.596;9.238;2023-04-08T07:17:08;98610.72;;;10.03;88.08
21824;BME280;11074;48.596;9.238;2023-04-08T07:19:34;98618.75;;;10.03;87.55
21824;BME280;11074;48.596;9.238;2023-04-08T07:22:00;98618.16;;;10.01;87.58
21824;BME280;11074;48.596;9.238;2023-04-08T07:24:26;98633.50;;;9.94;88.16
21824;BME280;11074;48.596;9.238;2023-04-08T07:26:52;98628.72;;;9.96;87.30
21824;BME280;11074;48.596;9.238;2023-04-08T07:29:19;98632.78;;;9.98;88.30
21824;BME280;11074;48.596;9.238;2023-04-08T07:31:45;98633.69;;;10.04;89.38
21824;BME280;11074;48.596;9.238;2023-04-08T07:34:11;98636.28;;;9.99;88.75
21824;BME280;11074;48.596;9.238;2023-04-08T07:36:36;98638.47;;;10.02;87.43
21824;BME280;11074;48.596;9.238;2023-04-08T07:39:03;98637.28;;;10.09;86.96
21824;BME280;11074;48.596;9.238;2023-04-08T07:41:28;98643.81;;;10.13;86.34
21824;BME280;11074;48.596;9.238;2023-04-08T07:43:54;98639.28;;;10.14;87.82
21824;BME280;11074;48.596;9.238;2023-04-08T07:46:20;98647.41;;;10.19;86.88
21824;BME280;11074;48.596;9.238;2023-04-08T07:48:46;98649.00;;;10.20;86.95
21824;BME280;11074;48.596;9.238;2023-04-08T07:51:12;98639.03;;;10.15;88.41
21824;BME280;11074;48.596;9.238;2023-04-08T07:53:38;98638.09;;;10.21;87.26
21824;BME280;11074;48.596;9.238;2023-04-08T07:56:11;98647.03;;;10.27;87.50
21824;BME280;11074;48.596;9.238;2023-04-08T07:58:37;98638.75;;;10.28;86.46
21824;BME280;11074;48.596;9.238;2023-04-08T08:01:03;98634.59;;;10.32;86.67
21824;BME280;11074;48.596;9.238;2023-04-08T08:03:28;98636.44;;;10.32;86.54
21824;BME280;11074;48.596;9.238;2023-04-08T08:05:54;98634.34;;;10.34;86.28
21824;BME280;11074;48.596;9.238;2023-04-08T08:08:20;98643.47;;;10.38;86.37
21824;BME280;11074;48.596;9.238;2023-04-08T08:10:45;98637.91;;;10.40;85.26
21824;BME280;11074;48.596;9.238;2023-04-08T08:13:11;98646.41;;;10.37;85.49
21824;BME280;11074;48.596;9.238;2023-04-08T08:15:41;98644.63;;;10.42;85.00
21824;BME280;11074;48.596;9.238;2023-04-08T08:18:06;98647.41;;;10.47;84.88
21824;BME280;11074;48.596;9.238;2023-04-08T08:20:34;98649.25;;;10.47;85.56
21824;BME280;11074;48.596;9.238;2023-04-08T08:23:00;98651.38;;;10.45;85.54
21824;BME280;11074;48.596;9.238;2023-04-08T08:25:26;98650.16;;;10.52;85.35
21824;BME280;11074;48.596;9.238;2023-04-08T08:27:52;98657.59;;;10.62;85.73
21824;BME280;11074;48.596;9.238;2023-04-08T08:30:17;98653.44;;;10.71;83.27
21824;BME280;11074;48.596;9.238;2023-04-08T08:32:45;98652.03;;;10.80;83.15
21824;BME280;11074;48.596;9.238;2023-04-08T08:35:11;98657.19;;;10.86;82.86
21824;BME280;11074;48.596;9.238;2023-04-08T08:37:37;98656.50;;;10.91;82.28
21824;BME280;11074;48.596;9.238;2023-04-08T08:40:03;98659.00;;;10.98;82.86
21824;BME280;11074;48.596;9.238;2023-04-08T08:42:29;98661.53;;;11.04;83.33
21824;BME280;11074;48.596;9.238;2023-04-08T08:44:55;98653.88;;;11.13;82.81
21824;BME280;11074;48.596;9.238;2023-04-08T08:47:20;98657.72;;;11.17;82.34
21824;BME280;11074;48.596;9.238;2023-04-08T08:49:46;98668.97;;;11.19;81.06
21824;BME280;11074;48.596;9.238;2023-04-08T08:52:15;98674.16;;;11.09;80.42
21824;BME280;11074;48.596;9.238;2023-04-08T08:54:44;98676.75;;;11.04;80.71
21824;BME280;11074;48.596;9.238;2023-04-08T08:57:18;98674.56;;;11.01;81.47
21824;BME280;11074;48.596;9.238;2023-04-08T08:59:46;98665.63;;;10.95;79.30
21824;BME280;11074;48.596;9.238;2023-04-08T09:02:26;98680.00;;;11.06;80.05
21824;BME280;11074;48.596;9.238;2023-04-08T09:04:58;98677.06;;;11.07;80.27
21824;BME280;11074;48.596;9.238;2023-04-08T09:07:27;98673.75;;;11.17;80.29
21824;BME280;11074;48.596;9.238;2023-04-08T09:09:55;98673.09;;;11.26;80.29
21824;BME280;11074;48.596;9.238;2023-04-08T09:12:22;98679.84;;;11.29;79.73
21824;BME280;11074;48.596;9.238;2023-04-08T09:14:49;98676.94;;;11.30;77.47
21824;BME280;11074;48.596;9.238;2023-04-08T09:17:15;98671.16;;;11.38;77.70
21824;BME280;11074;48.596;9.238;2023-04-08T09:20:10;98672.69;;;11.51;78.98
21824;BME280;11074;48.596;9.238;2023-04-08T09:22:59;98673.97;;;11.65;77.29
21824;BME280;11074;48.596;9.238;2023-04-08T09:25:31;98677.00;;;11.52;76.48
21824;BME280;11074;48.596;9.238;2023-04-08T09:27:58;98679.06;;;11.67;77.39
21824;BME280;11074;48.596;9.238;2023-04-08T09:30:25;98678.94;;;11.73;76.37
21824;BME280;11074;48.596;9.238;2023-04-08T09:32:54;98677.22;;;11.84;74.96
21824;BME280;11074;48.596;9.238;2023-04-08T09:35:22;98682.38;;;11.90;75.45
21824;BME280;11074;48.596;9.238;2023-04-08T09:37:49;98679.59;;;12.02;74.54
21824;BME280;11074;48.596;9.238;2023-04-08T09:40:16;98677.31;;;12.10;73.94
21824;BME280;11074;48.596;9.238;2023-04-08T09:42:47;98672.81;;;12.16;73.92
21824;BME280;11074;48.596;9.238;2023-04-08T09:45:17;98674.19;;;12.19;73.53
21824;BME280;11074;48.596;9.238;2023-04-08T09:47:57;98672.94;;;12.26;73.09
21824;BME280;11074;48.596;9.238;2023-04-08T09:50:31;98668.25;;;12.16;72.22
21824;BME280;11074;48.596;9.238;2023-04-08T09:53:09;98673.66;;;12.22;71.63
21824;BME280;11074;48.596;9.238;2023-04-08T09:55:37;98658.38;;;12.00;70.95
21824;BME280;11074;48.596;9.238;2023-04-08T09:58:18;98663.91;;;12.10;70.73
21824;BME280;11074;48.596;9.238;2023-04-08T10:00:50;98659.16;;;12.18;70.09
21824;BME280;11074;48.596;9.238;2023-04-08T10:03:36;98664.06;;;12.26;68.94
21824;BME280;11074;48.596;9.238;2023-04-08T10:06:07;98675.13;;;12.29;67.49
21824;BME280;11074;48.596;9.238;2023-04-08T10:08:34;98674.38;;;12.34;67.18
21824;BME280;11074;48.596;9.238;2023-04-08T10:11:00;98670.88;;;12.33;65.69
21824;BME280;11074;48.596;9.238;2023-04-08T10:13:27;98673.09;;;12.41;66.52
21824;BME280;11074;48.596;9.238;2023-04-08T10:16:23;98667.91;;;12.56;66.02
21824;BME280;11074;48.596;9.238;2023-04-08T10:18:53;98662.66;;;12.66;66.69
21824;BME280;11074;48.596;9.238;2023-04-08T10:23:58;98668.13;;;12.76;64.03
21824;BME280;11074;48.596;9.238;2023-04-08T10:26:43;98666.03;;;12.84;64.20
21824;BME280;11074;48.596;9.238;2023-04-08T10:31:47;98661.66;;;13.04;62.92
21824;BME280;11074;48.596;9.238;2023-04-08T10:34:21;98662.06;;;13.18;62.91
21824;BME280;11074;48.596;9.238;2023-04-08T10:36:49;98665.53;;;13.13;62.97
21824;BME280;11074;48.596;9.238;2023-04-08T10:39:16;98655.88;;;13.17;61.90
21824;BME280;11074;48.596;9.238;2023-04-08T10:41:46;98656.50;;;13.24;62.37
21824;BME280;11074;48.596;9.238;2023-04-08T10:44:20;98658.44;;;13.34;62.95
21824;BME280;11074;48.596;9.238;2023-04-08T10:46:48;98654.47;;;13.42;62.32
21824;BME280;11074;48.596;9.238;2023-04-08T10:49:15;98652.31;;;13.39;60.42
21824;BME280;11074;48.596;9.238;2023-04-08T10:51:42;98667.03;;;13.36;60.71
21824;BME280;11074;48.596;9.238;2023-04-08T10:54:14;98664.63;;;13.34;60.09
21824;BME280;11074;48.596;9.238;2023-04-08T10:56:49;98665.38;;;12.98;58.80
21824;BME280;11074;48.596;9.238;2023-04-08T10:59:26;98666.66;;;12.91;59.51
21824;BME280;11074;48.596;9.238;2023-04-08T11:01:52;98656.97;;;12.90;60.38
21824;BME280;11074;48.596;9.238;2023-04-08T11:04:18;98664.16;;;12.84;60.35
21824;BME280;11074;48.596;9.238;2023-04-08T11:06:46;98660.63;;;12.78;59.59
21824;BME280;11074;48.596;9.238;2023-04-08T11:09:13;98658.94;;;12.72;59.68
21824;BME280;11074;48.596;9.238;2023-04-08T11:11:45;98660.53;;;12.68;60.05
21824;BME280;11074;48.596;9.238;2023-04-08T11:14:11;98661.13;;;12.49;59.47
21824;BME280;11074;48.596;9.238;2023-04-08T11:16:38;98663.81;;;12.27;60.11
21824;BME280;11074;48.596;9.238;2023-04-08T11:19:05;98670.13;;;12.16;60.25
21824;BME280;11074;48.596;9.238;2023-04-08T11:21:34;98666.59;;;12.10;59.65
21824;BME280;11074;48.596;9.238;2023-04-08T11:24:00;98670.25;;;12.04;60.42
21824;BME280;11074;48.596;9.238;2023-04-08T11:26:26;98669.13;;;12.00;59.82
21824;BME280;11074;48.596;9.238;2023-04-08T11:28:55;98663.25;;;12.03;60.49
21824;BME280;11074;48.596;9.238;2023-04-08T11:31:22;98664.94;;;12.09;60.49
21824;BME280;11074;48.596;9.238;2023-04-08T11:33:48;98657.72;;;12.10;61.17
21824;BME280;11074;48.596;9.238;2023-04-08T11:36:17;98670.44;;;12.20;60.95
21824;BME280;11074;48.596;9.238;2023-04-08T11:38:43;98672.38;;;12.24;61.01
21824;BME280;11074;48.596;9.238;2023-04-08T11:41:10;98666.38;;;12.17;60.26
21824;BME280;11074;48.596;9.238;2023-04-08T11:43:36;98672.63;;;12.23;59.17
21824;BME280;11074;48.596;9.238;2023-04-08T11:46:12;98664.13;;;12.31;60.31
21824;BME280;11074;48.596;9.238;2023-04-08T11:48:38;98665.75;;;12.32;59.04
21824;BME280;11074;48.596;9.238;2023-04-08T11:51:07;98667.63;;;12.31;59.08
21824;BME280;11074;48.596;9.238;2023-04-08T11:53:34;98663.09;;;12.32;58.90
21824;BME280;11074;48.596;9.238;2023-04-08T11:56:20;98660.41;;;12.32;58.84
21824;BME280;11074;48.596;9.238;2023-04-08T11:58:46;98667.94;;;12.35;58.58
21824;BME280;11074;48.596;9.238;2023-04-08T12:01:13;98655.31;;;12.35;57.23
21824;BME280;11074;48.596;9.238;2023-04-08T12:03:39;98665.00;;;12.36;58.56
21824;BME280;11074;48.596;9.238;2023-04-08T12:06:17;98668.56;;;12.42;58.39
21824;BME280;11074;48.596;9.238;2023-04-08T12:08:43;98657.63;;;12.48;56.85
21824;BME280;11074;48.596;9.238;2023-04-08T12:11:09;98667.59;;;12.53;57.94
21824;BME280;11074;48.596;9.238;2023-04-08T12:13:35;98666.28;;;12.55;57.64
21824;BME280;11074;48.596;9.238;2023-04-08T12:16:01;98662.53;;;12.56;57.69
21824;BME280;11074;48.596;9.238;2023-04-08T12:18:27;98668.53;;;12.63;58.76
21824;BME280;11074;48.596;9.238;2023-04-08T12:20:53;98663.34;;;12.57;55.70
21824;BME280;11074;48.596;9.238;2023-04-08T12:23:19;98666.53;;;12.54;58.19
21824;BME280;11074;48.596;9.238;2023-04-08T12:25:44;98664.94;;;12.53;58.10
21824;BME280;11074;48.596;9.238;2023-04-08T12:28:10;98667.16;;;12.61;55.95
21824;BME280;11074;48.596;9.238;2023-04-08T12:30:36;98667.91;;;12.56;57.48
21824;BME280;11074;48.596;9.238;2023-04-08T12:33:03;98677.75;;;12.51;56.07
21824;BME280;11074;48.596;9.238;2023-04-08T12:35:29;98669.47;;;12.52;55.97
21824;BME280;11074;48.596;9.238;2023-04-08T12:37:55;98673.03;;;12.58;55.68
21824;BME280;11074;48.596;9.238;2023-04-08T12:40:21;98666.09;;;12.62;55.59
21824;BME280;11074;48.596;9.238;2023-04-08T12:42:47;98669.06;;;12.65;55.25
21824;BME280;11074;48.596;9.238;2023-04-08T12:45:13;98669.38;;;12.69;56.18
21824;BME280;11074;48.596;9.238;2023-04-08T12:47:38;98669.63;;;12.67;56.43
21824;BME280;11074;48.596;9.238;2023-04-08T12:50:04;98671.00;;;12.70;57.14
21824;BME280;11074;48.596;9.238;2023-04-08T12:52:30;98661.84;;;12.66;56.00
21824;BME280;11074;48.596;9.238;2023-04-08T12:54:56;98670.84;;;12.55;56.39
21824;BME280;11074;48.596;9.238;2023-04-08T12:57:22;98669.72;;;12.51;56.42
21824;BME280;11074;48.596;9.238;2023-04-08T12:59:47;98668.16;;;12.55;56.28
21824;BME280;11074;48.596;9.238;2023-04-08T13:02:13;98661.66;;;12.51;57.66
21824;BME280;11074;48.596;9.238;2023-04-08T13:04:39;98668.59;;;12.47;57.70
21824;BME280;11074;48.596;9.238;2023-04-08T13:07:04;98663.75;;;12.44;58.18
21824;BME280;11074;48.596;9.238;2023-04-08T13:09:32;98662.97;;;12.48;58.13
21824;BME280;11074;48.596;9.238;2023-04-08T13:11:57;98666.19;;;12.45;57.54
21824;BME280;11074;48.596;9.238;2023-04-08T13:14:24;98664.25;;;12.41;57.75
21824;BME280;11074;48.596;9.238;2023-04-08T13:16:50;98667.75;;;12.41;57.37